sensor_id;sensor_type;location;lat;lon;timestamp;pressure;altitude;pressure_sealevel;temperature;humidity
68628;BME280;55611;48.602;9.490;2023-08-21T00:02:21;97430;;;26.5;50
68628;BME280;55611;48.602;9.490;2023-08-21T00:04:52;97430;;;26.5;50
68628;BME280;55611;48.602;9.490;2023-08-21T00:07:22;97430;;;26.5;50
68628;BME280;55611;48.602;9.490;2023-08-21T00:09:53;97430;;;26.5;50
68628;BME280;55611;48.602;9.490;2023-08-21T00:12:24;97430;;;26.4;50
68628;BME280;55611;48.602;9.490;2023-08-21T00:14:55;97420;;;26.4;50
68628;BME280;55611;48.602;9.490;2023-08-21T00:17:26;97430;;;26.4;50
68628;BME280;55611;48.602;9.490;2023-08-21T00:19:56;97430;;;26.3;50
68628;BME280;55611;48.602;9.490;2023-08-21T00:22:27;97430;;;26.3;50
68628;BME280;55611;48.602;9.490;2023-08-21T00:24:58;97420;;;26.2;50
68628;BME280;55611;48.602;9.490;2023-08-21T00:27:29;97420;;;26.1;50
68628;BME280;55611;48.602;9.490;2023-08-21T00:30:00;97410;;;26.1;50
68628;BME280;55611;48.602;9.490;2023-08-21T00:32:30;97420;;;26.1;50
68628;BME280;55611;48.602;9.490;2023-08-21T00:35:01;97410;;;26;50
68628;BME280;55611;48.602;9.490;2023-08-21T00:37:32;97410;;;26;50
68628;BME280;55611;48.602;9.490;2023-08-21T00:40:03;97410;;;26;50
68628;BME280;55611;48.602;9.490;2023-08-21T00:42:33;97410;;;26;50
68628;BME280;55611;48.602;9.490;2023-08-21T00:45:04;97410;;;26;50
68628;BME280;55611;48.602;9.490;2023-08-21T00:47:35;97410;;;26;50
68628;BME280;55611;48.602;9.490;2023-08-21T00:50:06;97410;;;26.1;50.5
68628;BME280;55611;48.602;9.490;2023-08-21T00:52:38;97410;;;26.1;50.5
68628;BME280;55611;48.602;9.490;2023-08-21T00:55:07;97400;;;26.2;50
68628;BME280;55611;48.602;9.490;2023-08-21T00:57:38;97410;;;26.3;50
68628;BME280;55611;48.602;9.490;2023-08-21T01:00:09;97410;;;26.4;50
68628;BME280;55611;48.602;9.490;2023-08-21T01:02:39;97410;;;26.4;50
68628;BME280;55611;48.602;9.490;2023-08-21T01:05:10;97410;;;26.4;50
68628;BME280;55611;48.602;9.490;2023-08-21T01:07:44;97400;;;26.3;50
68628;BME280;55611;48.602;9.490;2023-08-21T01:10:15;97400;;;26.2;50
68628;BME280;55611;48.602;9.490;2023-08-21T01:12:48;97400;;;26.1;50
68628;BME280;55611;48.602;9.490;2023-08-21T01:15:13;97400;;;26;50
68628;BME280;55611;48.602;9.490;2023-08-21T01:17:44;97410;;;25.9;50.5
68628;BME280;55611;48.602;9.490;2023-08-21T01:20:15;97410;;;25.9;50.5
68628;BME280;55611;48.602;9.490;2023-08-21T01:25:16;97420;;;25.9;50.5
68628;BME280;55611;48.602;9.490;2023-08-21T01:27:48;97420;;;25.9;50.5
68628;BME280;55611;48.602;9.490;2023-08-21T01:30:18;97430;;;25.8;50.5
68628;BME280;55611;48.602;9.490;2023-08-21T01:32:57;97430;;;25.7;50.5
68628;BME280;55611;48.602;9.490;2023-08-21T01:35:20;97430;;;25.7;50.5
68628;BME280;55611;48.602;9.490;2023-08-21T01:37:51;97430;;;25.6;50
68628;BME280;55611;48.602;9.490;2023-08-21T01:40:21;97430;;;25.6;50
68628;BME280;55611;48.602;9.490;2023-08-21T01:42:52;97430;;;25.6;50
68628;BME280;55611;48.602;9.490;2023-08-21T01:45:23;97420;;;25.5;50.5
68628;BME280;55611;48.602;9.490;2023-08-21T01:47:53;97430;;;25.4;50.5
68628;BME280;55611;48.602;9.490;2023-08-21T01:50:24;97420;;;25.4;50.5
68628;BME280;55611;48.602;9.490;2023-08-21T01:52:55;97420;;;25.4;50.5
68628;BME280;55611;48.602;9.490;2023-08-21T01:55:26;97420;;;25.5;50.5
68628;BME280;55611;48.602;9.490;2023-08-21T01:57:56;97420;;;25.5;50.5
68628;BME280;55611;48.602;9.490;2023-08-21T02:00:27;97410;;;25.5;50.5
68628;BME280;55611;48.602;9.490;2023-08-21T02:02:58;97410;;;25.5;50.5
68628;BME280;55611;48.602;9.490;2023-08-21T02:05:29;97410;;;25.5;50.5
68628;BME280;55611;48.602;9.490;2023-08-21T02:08:00;97410;;;25.5;50.5
68628;BME280;55611;48.602;9.490;2023-08-21T02:10:30;97410;;;25.5;50.5
68628;BME280;55611;48.602;9.490;2023-08-21T02:13:01;97400;;;25.5;50.5
68628;BME280;55611;48.602;9.490;2023-08-21T02:15:32;97400;;;25.5;50.5
68628;BME280;55611;48.602;9.490;2023-08-21T02:18:03;97400;;;25.5;50.5
68628;BME280;55611;48.602;9.490;2023-08-21T02:20:33;97400;;;25.5;50.5
68628;BME280;55611;48.602;9.490;2023-08-21T02:23:04;97400;;;25.5;50.5
68628;BME280;55611;48.602;9.490;2023-08-21T02:25:35;97400;;;25.6;50.5
68628;BME280;55611;48.602;9.490;2023-08-21T02:28:06;97400;;;25.6;50.5
68628;BME280;55611;48.602;9.490;2023-08-21T02:30:39;97410;;;25.6;50.5
68628;BME280;55611;48.602;9.490;2023-08-21T02:33:07;97410;;;25.6;50.5
68628;BME280;55611;48.602;9.490;2023-08-21T02:35:38;97410;;;25.6;50.5
68628;BME280;55611;48.602;9.490;2023-08-21T02:38:09;97410;;;25.5;50.5
68628;BME280;55611;48.602;9.490;2023-08-21T02:40:40;97400;;;25.5;50.5
68628;BME280;55611;48.602;9.490;2023-08-21T02:43:10;97400;;;25.4;50.5
68628;BME280;55611;48.602;9.490;2023-08-21T02:45:41;97400;;;25.3;50.5
68628;BME280;55611;48.602;9.490;2023-08-21T02:48:12;97400;;;25.3;50.5
68628;BME280;55611;48.602;9.490;2023-08-21T02:50:43;97400;;;25.2;50.5
68628;BME280;55611;48.602;9.490;2023-08-21T02:53:14;97400;;;25.1;50.5
68628;BME280;55611;48.602;9.490;2023-08-21T02:55:44;97400;;;25.1;50.5
68628;BME280;55611;48.602;9.490;2023-08-21T02:58:15;97400;;;25.1;50.5
68628;BME280;55611;48.602;9.490;2023-08-21T03:00:46;97400;;;25.1;50.5
68628;BME280;55611;48.602;9.490;2023-08-21T03:03:17;97400;;;25.1;51
68628;BME280;55611;48.602;9.490;2023-08-21T03:05:47;97400;;;25.2;51
68628;BME280;55611;48.602;9.490;2023-08-21T03:08:18;97400;;;25.2;51
68628;BME280;55611;48.602;9.490;2023-08-21T03:10:49;97410;;;25.2;51
68628;BME280;55611;48.602;9.490;2023-08-21T03:13:20;97410;;;25.2;51
68628;BME280;55611;48.602;9.490;2023-08-21T03:15:50;97410;;;25.2;51
68628;BME280;55611;48.602;9.490;2023-08-21T03:18:21;97410;;;25.2;51
68628;BME280;55611;48.602;9.490;2023-08-21T03:20:52;97410;;;25.2;51
68628;BME280;55611;48.602;9.490;2023-08-21T03:23:23;97410;;;25.1;51
68628;BME280;55611;48.602;9.490;2023-08-21T03:25:54;97410;;;25;51
68628;BME280;55611;48.602;9.490;2023-08-21T03:28:24;97410;;;25;51
68628;BME280;55611;48.602;9.490;2023-08-21T03:30:55;97410;;;25;51
68628;BME280;55611;48.602;9.490;2023-08-21T03:33:26;97410;;;24.9;51.5
68628;BME280;55611;48.602;9.490;2023-08-21T03:38:28;97410;;;25;51.5
68628;BME280;55611;48.602;9.490;2023-08-21T03:40:59;97410;;;25;51.5
68628;BME280;55611;48.602;9.490;2023-08-21T03:43:29;97410;;;25;51
68628;BME280;55611;48.602;9.490;2023-08-21T03:46:00;97410;;;25;51
68628;BME280;55611;48.602;9.490;2023-08-21T03:48:31;97410;;;25;51
68628;BME280;55611;48.602;9.490;2023-08-21T03:51:01;97410;;;24.9;51
68628;BME280;55611;48.602;9.490;2023-08-21T03:53:32;97410;;;24.9;51.5
68628;BME280;55611;48.602;9.490;2023-08-21T03:56:03;97420;;;24.8;51.5
68628;BME280;55611;48.602;9.490;2023-08-21T03:58:35;97420;;;24.8;51.5
68628;BME280;55611;48.602;9.490;2023-08-21T04:01:04;97420;;;24.8;51.5
68628;BME280;55611;48.602;9.490;2023-08-21T04:03:35;97420;;;24.7;51.5
68628;BME280;55611;48.602;9.490;2023-08-21T04:06:06;97420;;;24.7;51.5
68628;BME280;55611;48.602;9.490;2023-08-21T04:08:37;97420;;;24.7;51.5
68628;BME280;55611;48.602;9.490;2023-08-21T04:11:08;97430;;;24.8;51.5
68628;BME280;55611;48.602;9.490;2023-08-21T04:13:38;97430;;;24.8;51.5
68628;BME280;55611;48.602;9.490;2023-08-21T04:16:09;97430;;;24.8;51.5
68628;BME280;55611;48.602;9.490;2023-08-21T04:18:40;97440;;;24.9;51.5
68628;BME280;55611;48.602;9.490;2023-08-21T04:21:11;97440;;;24.9;51.5
68628;BME280;55611;48.602;9.490;2023-08-21T04:23:41;97440;;;24.9;51.5
68628;BME280;55611;48.602;9.490;2023-08-21T04:26:12;97440;;;24.9;51.5
68628;BME280;55611;48.602;9.490;2023-08-21T04:28:43;97440;;;24.9;51.5
68628;BME280;55611;48.602;9.490;2023-08-21T04:31:14;97450;;;24.9;51.5
68628;BME280;55611;48.602;9.490;2023-08-21T04:33:44;97450;;;24.9;51.5
68628;BME280;55611;48.602;9.490;2023-08-21T04:36:16;97440;;;24.8;51.5
68628;BME280;55611;48.602;9.490;2023-08-21T04:38:46;97450;;;24.8;51.5
68628;BME280;55611;48.602;9.490;2023-08-21T04:41:17;97450;;;24.9;51.5
68628;BME280;55611;48.602;9.490;2023-08-21T04:43:48;97450;;;24.9;51.5
68628;BME280;55611;48.602;9.490;2023-08-21T04:46:18;97450;;;24.9;51.5
68628;BME280;55611;48.602;9.490;2023-08-21T04:48:49;97450;;;24.9;51.5
68628;BME280;55611;48.602;9.490;2023-08-21T04:51:20;97450;;;24.9;51
68628;BME280;55611;48.602;9.490;2023-08-21T04:53:51;97450;;;24.9;51
68628;BME280;55611;48.602;9.490;2023-08-21T04:56:21;97450;;;24.9;51.5
68628;BME280;55611;48.602;9.490;2023-08-21T04:58:52;97450;;;24.9;51.5
68628;BME280;55611;48.602;9.490;2023-08-21T05:01:23;97450;;;24.9;51.5
68628;BME280;55611;48.602;9.490;2023-08-21T05:03:54;97450;;;24.9;51.5
68628;BME280;55611;48.602;9.490;2023-08-21T05:06:25;97460;;;25;51.5
68628;BME280;55611;48.602;9.490;2023-08-21T05:08:55;97460;;;25;51.5
68628;BME280;55611;48.602;9.490;2023-08-21T05:11:26;97460;;;25.1;51.5
68628;BME280;55611;48.602;9.490;2023-08-21T05:13:57;97470;;;25.2;51.5
68628;BME280;55611;48.602;9.490;2023-08-21T05:16:28;97470;;;25.3;51.5
68628;BME280;55611;48.602;9.490;2023-08-21T05:18:58;97470;;;25.4;51.5
68628;BME280;55611;48.602;9.490;2023-08-21T05:21:29;97470;;;25.4;51.5
68628;BME280;55611;48.602;9.490;2023-08-21T05:24:00;97470;;;25.5;51.5
68628;BME280;55611;48.602;9.490;2023-08-21T05:26:31;97470;;;25.6;51.5
68628;BME280;55611;48.602;9.490;2023-08-21T05:29:02;97470;;;25.7;51.5
68628;BME280;55611;48.602;9.490;2023-08-21T05:31:32;97470;;;25.8;51.5
68628;BME280;55611;48.602;9.490;2023-08-21T05:34:03;97470;;;25.8;51.5
68628;BME280;55611;48.602;9.490;2023-08-21T05:36:34;97470;;;25.8;51.5
68628;BME280;55611;48.602;9.490;2023-08-21T05:39:05;97470;;;25.9;51.5
68628;BME280;55611;48.602;9.490;2023-08-21T05:41:35;97470;;;26;51.5
68628;BME280;55611;48.602;9.490;2023-08-21T05:44:06;97470;;;26;51.5
68628;BME280;55611;48.602;9.490;2023-08-21T05:46:37;97470;;;26.1;51.5
68628;BME280;55611;48.602;9.490;2023-08-21T05:49:08;97470;;;26.2;51.5
68628;BME280;55611;48.602;9.490;2023-08-21T05:51:38;97470;;;26.3;51.5
68628;BME280;55611;48.602;9.490;2023-08-21T05:54:09;97470;;;26.3;51.5
68628;BME280;55611;48.602;9.490;2023-08-21T05:56:40;97470;;;26.4;51.5
68628;BME280;55611;48.602;9.490;2023-08-21T05:59:11;97470;;;26.4;51.5
68628;BME280;55611;48.602;9.490;2023-08-21T06:01:42;97480;;;26.5;51.5
68628;BME280;55611;48.602;9.490;2023-08-21T06:04:12;97480;;;26.5;51.5
68628;BME280;55611;48.602;9.490;2023-08-21T06:06:43;97480;;;26.7;51.5
68628;BME280;55611;48.602;9.490;2023-08-21T06:09:14;97490;;;26.7;51.5
68628;BME280;55611;48.602;9.490;2023-08-21T06:11:45;97490;;;26.8;51
68628;BME280;55611;48.602;9.490;2023-08-21T06:14:15;97490;;;26.8;51
68628;BME280;55611;48.602;9.490;2023-08-21T06:16:46;97490;;;26.8;51
68628;BME280;55611;48.602;9.490;2023-08-21T06:19:17;97490;;;26.8;51
68628;BME280;55611;48.602;9.490;2023-08-21T06:21:48;97490;;;26.9;51
68628;BME280;55611;48.602;9.490;2023-08-21T06:24:19;97490;;;26.9;51
68628;BME280;55611;48.602;9.490;2023-08-21T06:26:50;97490;;;26.9;51
68628;BME280;55611;48.602;9.490;2023-08-21T06:29:20;97490;;;27;51
68628;BME280;55611;48.602;9.490;2023-08-21T06:31:51;97490;;;27.1;51
68628;BME280;55611;48.602;9.490;2023-08-21T06:34:22;97500;;;27.1;51
68628;BME280;55611;48.602;9.490;2023-08-21T06:36:52;97500;;;27.2;51
68628;BME280;55611;48.602;9.490;2023-08-21T06:39:25;97500;;;27.3;51
68628;BME280;55611;48.602;9.490;2023-08-21T06:41:54;97500;;;27.4;51
68628;BME280;55611;48.602;9.490;2023-08-21T06:44:25;97500;;;27.5;50.5
68628;BME280;55611;48.602;9.490;2023-08-21T06:46:56;97500;;;27.6;50.5
68628;BME280;55611;48.602;9.490;2023-08-21T06:49:26;97500;;;27.7;50.5
68628;BME280;55611;48.602;9.490;2023-08-21T06:51:58;97500;;;27.7;50.5
68628;BME280;55611;48.602;9.490;2023-08-21T06:56:59;97500;;;27.9;50.5
68628;BME280;55611;48.602;9.490;2023-08-21T06:59:29;97510;;;27.9;50.5
68628;BME280;55611;48.602;9.490;2023-08-21T07:02:00;97500;;;28;50.5
68628;BME280;55611;48.602;9.490;2023-08-21T07:04:31;97500;;;28;50.5
68628;BME280;55611;48.602;9.490;2023-08-21T07:07:02;97500;;;28;50.5
68628;BME280;55611;48.602;9.490;2023-08-21T07:09:32;97500;;;28;50.5
68628;BME280;55611;48.602;9.490;2023-08-21T07:12:03;97500;;;28.1;50.5
68628;BME280;55611;48.602;9.490;2023-08-21T07:14:34;97510;;;28.2;50.5
68628;BME280;55611;48.602;9.490;2023-08-21T07:17:05;97500;;;28.2;50.5
68628;BME280;55611;48.602;9.490;2023-08-21T07:19:36;97510;;;28.3;50.5
68628;BME280;55611;48.602;9.490;2023-08-21T07:22:06;97510;;;28.4;50.5
68628;BME280;55611;48.602;9.490;2023-08-21T07:24:37;97510;;;28.4;50.5
68628;BME280;55611;48.602;9.490;2023-08-21T07:27:08;97510;;;28.3;50.5
68628;BME280;55611;48.602;9.490;2023-08-21T07:29:39;97510;;;28.4;50.5
68628;BME280;55611;48.602;9.490;2023-08-21T07:32:09;97510;;;28.4;50.5
68628;BME280;55611;48.602;9.490;2023-08-21T07:34:40;97510;;;28.5;50.5
68628;BME280;55611;48.602;9.490;2023-08-21T07:37:11;97510;;;28.6;50.5
68628;BME280;55611;48.602;9.490;2023-08-21T07:39:42;97510;;;28.7;50.5
68628;BME280;55611;48.602;9.490;2023-08-21T07:42:13;97510;;;28.7;50.5
68628;BME280;55611;48.602;9.490;2023-08-21T07:44:44;97520;;;28.7;50.5
68628;BME280;55611;48.602;9.490;2023-08-21T07:47:15;97510;;;28.7;50.5
68628;BME280;55611;48.602;9.490;2023-08-21T07:49:45;97520;;;28.9;50.5
68628;BME280;55611;48.602;9.490;2023-08-21T07:52:16;97520;;;29;50.5
68628;BME280;55611;48.602;9.490;2023-08-21T07:54:46;97520;;;29.1;50.5
68628;BME280;55611;48.602;9.490;2023-08-21T07:57:17;97510;;;29.2;50.5
68628;BME280;55611;48.602;9.490;2023-08-21T07:59:48;97520;;;29.3;50
68628;BME280;55611;48.602;9.490;2023-08-21T08:02:19;97520;;;29.3;50
68628;BME280;55611;48.602;9.490;2023-08-21T08:04:50;97520;;;29.3;50
68628;BME280;55611;48.602;9.490;2023-08-21T08:07:20;97520;;;29.4;50.5
68628;BME280;55611;48.602;9.490;2023-08-21T08:09:51;97520;;;29.4;50.5
68628;BME280;55611;48.602;9.490;2023-08-21T08:12:22;97520;;;29.5;50.5
68628;BME280;55611;48.602;9.490;2023-08-21T08:14:53;97520;;;29.5;50
68628;BME280;55611;48.602;9.490;2023-08-21T08:17:23;97520;;;29.6;50
68628;BME280;55611;48.602;9.490;2023-08-21T08:19:54;97520;;;29.6;50
68628;BME280;55611;48.602;9.490;2023-08-21T08:22:25;97520;;;29.7;50
68628;BME280;55611;48.602;9.490;2023-08-21T08:24:56;97520;;;29.7;50
68628;BME280;55611;48.602;9.490;2023-08-21T08:27:26;97520;;;29.7;50
68628;BME280;55611;48.602;9.490;2023-08-21T08:29:58;97520;;;29.8;50
68628;BME280;55611;48.602;9.490;2023-08-21T08:32:28;97520;;;29.9;50
68628;BME280;55611;48.602;9.490;2023-08-21T08:34:59;97520;;;30;50
68628;BME280;55611;48.602;9.490;2023-08-21T08:37:30;97520;;;30;50
68628;BME280;55611;48.602;9.490;2023-08-21T08:40:00;97520;;;30.2;50
68628;BME280;55611;48.602;9.490;2023-08-21T08:42:31;97520;;;30.2;50
68628;BME280;55611;48.602;9.490;2023-08-21T08:45:03;97520;;;30.3;50
68628;BME280;55611;48.602;9.490;2023-08-21T08:47:33;97520;;;30.4;50
68628;BME280;55611;48.602;9.490;2023-08-21T08:50:05;97520;;;30.5;50
68628;BME280;55611;48.602;9.490;2023-08-21T08:52:35;97520;;;30.5;50
68628;BME280;55611;48.602;9.490;2023-08-21T08:55:05;97520;;;30.5;49.5
68628;BME280;55611;48.602;9.490;2023-08-21T08:57:36;97520;;;30.6;49.5
68628;BME280;55611;48.602;9.490;2023-08-21T09:00:07;97520;;;30.7;49.5
68628;BME280;55611;48.602;9.490;2023-08-21T09:02:37;97520;;;30.7;49.5
68628;BME280;55611;48.602;9.490;2023-08-21T09:05:08;97520;;;30.7;49.5
68628;BME280;55611;48.602;9.490;2023-08-21T09:07:39;97520;;;30.8;49.5
68628;BME280;55611;48.602;9.490;2023-08-21T09:10:12;97520;;;30.8;49.5
68628;BME280;55611;48.602;9.490;2023-08-21T09:12:40;97520;;;30.8;49.5
68628;BME280;55611;48.602;9.490;2023-08-21T09:15:11;97510;;;30.9;49.5
68628;BME280;55611;48.602;9.490;2023-08-21T09:17:42;97510;;;31;49.5
68628;BME280;55611;48.602;9.490;2023-08-21T09:20:13;97510;;;31.1;49.5
68628;BME280;55611;48.602;9.490;2023-08-21T09:22:50;97510;;;31.1;49.5
68628;BME280;55611;48.602;9.490;2023-08-21T09:25:14;97510;;;31.1;49.5
68628;BME280;55611;48.602;9.490;2023-08-21T09:27:45;97510;;;31.1;49.5
68628;BME280;55611;48.602;9.490;2023-08-21T09:30:16;97510;;;31.2;49.5
68628;BME280;55611;48.602;9.490;2023-08-21T09:32:54;97510;;;31.2;49.5
68628;BME280;55611;48.602;9.490;2023-08-21T09:35:17;97510;;;31.3;49.5
68628;BME280;55611;48.602;9.490;2023-08-21T09:37:48;97510;;;31.3;49.5
68628;BME280;55611;48.602;9.490;2023-08-21T09:40:19;97510;;;31.3;49.5
68628;BME280;55611;48.602;9.490;2023-08-21T09:42:51;97500;;;31.4;49
68628;BME280;55611;48.602;9.490;2023-08-21T09:45:22;97500;;;31.4;49.5
68628;BME280;55611;48.602;9.490;2023-08-21T09:47:51;97500;;;31.4;49.5
68628;BME280;55611;48.602;9.490;2023-08-21T09:50:22;97500;;;31.3;49.5
68628;BME280;55611;48.602;9.490;2023-08-21T09:52:53;97500;;;31.5;49.5
68628;BME280;55611;48.602;9.490;2023-08-21T09:55:24;97500;;;31.6;49.5
68628;BME280;55611;48.602;9.490;2023-08-21T09:57:54;97500;;;31.6;49.5
68628;BME280;55611;48.602;9.490;2023-08-21T10:00:29;97500;;;31.7;49.5
68628;BME280;55611;48.602;9.490;2023-08-21T10:02:59;97490;;;31.8;49.5
68628;BME280;55611;48.602;9.490;2023-08-21T10:05:27;97490;;;31.9;49
68628;BME280;55611;48.602;9.490;2023-08-21T10:07:59;97490;;;31.9;49
68628;BME280;55611;48.602;9.490;2023-08-21T10:10:33;97490;;;32;49
68628;BME280;55611;48.602;9.490;2023-08-21T10:12:59;97500;;;32.1;49
68628;BME280;55611;48.602;9.490;2023-08-21T10:15:31;97490;;;32.1;49
68628;BME280;55611;48.602;9.490;2023-08-21T10:18:33;97490;;;32.1;49
68628;BME280;55611;48.602;9.490;2023-08-21T10:20:31;97480;;;32.2;49
68628;BME280;55611;48.602;9.490;2023-08-21T10:23:02;97480;;;32.2;49
68628;BME280;55611;48.602;9.490;2023-08-21T10:25:33;97480;;;32.2;49
68628;BME280;55611;48.602;9.490;2023-08-21T10:28:04;97480;;;32.3;49
68628;BME280;55611;48.602;9.490;2023-08-21T10:30:34;97480;;;32.5;48.5
68628;BME280;55611;48.602;9.490;2023-08-21T10:33:05;97480;;;32.6;48.5
68628;BME280;55611;48.602;9.490;2023-08-21T10:35:36;97480;;;32.6;48.5
68628;BME280;55611;48.602;9.490;2023-08-21T10:38:07;97470;;;32.4;48.5
68628;BME280;55611;48.602;9.490;2023-08-21T10:40:38;97470;;;32.5;48.5
68628;BME280;55611;48.602;9.490;2023-08-21T10:43:40;97470;;;32.7;48.5
68628;BME280;55611;48.602;9.490;2023-08-21T10:45:41;97460;;;32.8;48.5
68628;BME280;55611;48.602;9.490;2023-08-21T10:48:12;97460;;;32.8;48.5
68628;BME280;55611;48.602;9.490;2023-08-21T10:50:41;97460;;;32.9;48.5
68628;BME280;55611;48.602;9.490;2023-08-21T10:53:11;97460;;;32.9;48.5
68628;BME280;55611;48.602;9.490;2023-08-21T10:55:42;97460;;;32.8;48.5
68628;BME280;55611;48.602;9.490;2023-08-21T10:58:13;97460;;;32.7;48.5
68628;BME280;55611;48.602;9.490;2023-08-21T11:00:44;97450;;;32.7;48.5
68628;BME280;55611;48.602;9.490;2023-08-21T11:03:15;97450;;;32.8;48.5
68628;BME280;55611;48.602;9.490;2023-08-21T11:05:45;97450;;;32.9;48.5
68628;BME280;55611;48.602;9.490;2023-08-21T11:08:17;97460;;;33;48
68628;BME280;55611;48.602;9.490;2023-08-21T11:10:47;97460;;;33.1;48
68628;BME280;55611;48.602;9.490;2023-08-21T11:13:18;97460;;;33;48
68628;BME280;55611;48.602;9.490;2023-08-21T11:15:48;97460;;;33;48
68628;BME280;55611;48.602;9.490;2023-08-21T11:18:19;97460;;;33;48
68628;BME280;55611;48.602;9.490;2023-08-21T11:20:50;97450;;;33;48
68628;BME280;55611;48.602;9.490;2023-08-21T11:23:21;97460;;;33;48
68628;BME280;55611;48.602;9.490;2023-08-21T11:25:52;97450;;;33;48
68628;BME280;55611;48.602;9.490;2023-08-21T11:28:22;97450;;;33.1;48
68628;BME280;55611;48.602;9.490;2023-08-21T11:30:54;97460;;;33.1;48
68628;BME280;55611;48.602;9.490;2023-08-21T11:33:25;97460;;;33.3;48
68628;BME280;55611;48.602;9.490;2023-08-21T11:35:55;97460;;;33.3;47.5
68628;BME280;55611;48.602;9.490;2023-08-21T11:38:26;97460;;;33.3;47.5
68628;BME280;55611;48.602;9.490;2023-08-21T11:40:58;97450;;;33.4;47.5
68628;BME280;55611;48.602;9.490;2023-08-21T11:43:42;97450;;;33.4;47.5
68628;BME280;55611;48.602;9.490;2023-08-21T11:45:58;97450;;;33.3;47.5
68628;BME280;55611;48.602;9.490;2023-08-21T11:48:29;97440;;;33.2;47.5
68628;BME280;55611;48.602;9.490;2023-08-21T11:51:00;97440;;;33.2;47.5
68628;BME280;55611;48.602;9.490;2023-08-21T11:53:31;97440;;;33.3;47.5
68628;BME280;55611;48.602;9.490;2023-08-21T11:56:01;97440;;;33.4;47.5
68628;BME280;55611;48.602;9.490;2023-08-21T11:58:32;97440;;;33.6;47.5
68628;BME280;55611;48.602;9.490;2023-08-21T12:01:03;97440;;;33.6;47.5
68628;BME280;55611;48.602;9.490;2023-08-21T12:03:37;97440;;;33.7;47.5
68628;BME280;55611;48.602;9.490;2023-08-21T12:06:07;97440;;;33.7;47.5
68628;BME280;55611;48.602;9.490;2023-08-21T12:08:35;97440;;;33.8;47
68628;BME280;55611;48.602;9.490;2023-08-21T12:11:06;97440;;;33.8;47
68628;BME280;55611;48.602;9.490;2023-08-21T12:13:36;97430;;;33.9;47
68628;BME280;55611;48.602;9.490;2023-08-21T12:16:07;97430;;;33.8;47
68628;BME280;55611;48.602;9.490;2023-08-21T12:18:38;97430;;;33.8;47
68628;BME280;55611;48.602;9.490;2023-08-21T12:21:09;97430;;;33.7;47
68628;BME280;55611;48.602;9.490;2023-08-21T12:23:39;97420;;;33.8;47
68628;BME280;55611;48.602;9.490;2023-08-21T12:26:10;97420;;;33.9;47
68628;BME280;55611;48.602;9.490;2023-08-21T12:28:41;97420;;;33.9;47
68628;BME280;55611;48.602;9.490;2023-08-21T12:31:12;97420;;;33.9;47
68628;BME280;55611;48.602;9.490;2023-08-21T12:33:42;97420;;;33.8;47
68628;BME280;55611;48.602;9.490;2023-08-21T12:36:13;97420;;;33.9;47
68628;BME280;55611;48.602;9.490;2023-08-21T12:38:44;97410;;;34;47
68628;BME280;55611;48.602;9.490;2023-08-21T12:41:15;97410;;;34;47
68628;BME280;55611;48.602;9.490;2023-08-21T12:46:16;97400;;;34.2;47
68628;BME280;55611;48.602;9.490;2023-08-21T12:48:47;97400;;;34.5;46.5
68628;BME280;55611;48.602;9.490;2023-08-21T12:51:18;97400;;;34.4;46.5
68628;BME280;55611;48.602;9.490;2023-08-21T12:53:49;97400;;;34.4;46.5
68628;BME280;55611;48.602;9.490;2023-08-21T12:56:19;97400;;;34.5;46.5
68628;BME280;55611;48.602;9.490;2023-08-21T12:58:50;97400;;;34.4;46.5
68628;BME280;55611;48.602;9.490;2023-08-21T13:01:21;97390;;;34.5;46.5
68628;BME280;55611;48.602;9.490;2023-08-21T13:03:52;97380;;;34.5;46.5
68628;BME280;55611;48.602;9.490;2023-08-21T13:06:22;97380;;;34.6;46.5
68628;BME280;55611;48.602;9.490;2023-08-21T13:08:53;97380;;;34.6;46.5
68628;BME280;55611;48.602;9.490;2023-08-21T13:11:24;97380;;;34.6;46.5
68628;BME280;55611;48.602;9.490;2023-08-21T13:13:55;97370;;;34.5;46.5
68628;BME280;55611;48.602;9.490;2023-08-21T13:16:26;97370;;;34.5;46.5
68628;BME280;55611;48.602;9.490;2023-08-21T13:18:56;97370;;;34.5;46.5
68628;BME280;55611;48.602;9.490;2023-08-21T13:21:27;97370;;;34.6;46.5
68628;BME280;55611;48.602;9.490;2023-08-21T13:23:58;97370;;;34.6;46.5
68628;BME280;55611;48.602;9.490;2023-08-21T13:26:29;97370;;;34.7;46.5
68628;BME280;55611;48.602;9.490;2023-08-21T13:28:59;97360;;;34.7;46.5
68628;BME280;55611;48.602;9.490;2023-08-21T13:31:30;97370;;;34.8;46.5
68628;BME280;55611;48.602;9.490;2023-08-21T13:34:01;97370;;;35;46.5
68628;BME280;55611;48.602;9.490;2023-08-21T13:36:32;97360;;;35;46.5
68628;BME280;55611;48.602;9.490;2023-08-21T13:39:03;97360;;;34.9;46.5
68628;BME280;55611;48.602;9.490;2023-08-21T13:41:33;97360;;;34.7;46.5
68628;BME280;55611;48.602;9.490;2023-08-21T13:44:04;97350;;;34.7;46.5
68628;BME280;55611;48.602;9.490;2023-08-21T13:46:35;97360;;;34.7;46.5
68628;BME280;55611;48.602;9.490;2023-08-21T13:49:06;97350;;;34.8;46.5
68628;BME280;55611;48.602;9.490;2023-08-21T13:51:37;97350;;;34.7;46.5
68628;BME280;55611;48.602;9.490;2023-08-21T13:54:07;97350;;;34.6;46.5
68628;BME280;55611;48.602;9.490;2023-08-21T13:56:38;97350;;;34.5;46.5
68628;BME280;55611;48.602;9.490;2023-08-21T13:59:09;97350;;;34.5;46.5
68628;BME280;55611;48.602;9.490;2023-08-21T14:01:40;97340;;;34.6;46.5
68628;BME280;55611;48.602;9.490;2023-08-21T14:04:10;97340;;;34.7;46.5
68628;BME280;55611;48.602;9.490;2023-08-21T14:06:41;97350;;;34.8;46.5
68628;BME280;55611;48.602;9.490;2023-08-21T14:09:12;97340;;;34.8;46.5
68628;BME280;55611;48.602;9.490;2023-08-21T14:11:43;97340;;;34.8;46
68628;BME280;55611;48.602;9.490;2023-08-21T14:14:13;97340;;;34.9;46
68628;BME280;55611;48.602;9.490;2023-08-21T14:16:44;97340;;;34.9;46
68628;BME280;55611;48.602;9.490;2023-08-21T14:19:15;97340;;;34.9;46
68628;BME280;55611;48.602;9.490;2023-08-21T14:21:46;97340;;;34.7;46
68628;BME280;55611;48.602;9.490;2023-08-21T14:24:17;97340;;;34.6;46
68628;BME280;55611;48.602;9.490;2023-08-21T14:26:47;97330;;;34.7;46
68628;BME280;55611;48.602;9.490;2023-08-21T14:29:18;97330;;;34.7;46
68628;BME280;55611;48.602;9.490;2023-08-21T14:31:49;97330;;;34.7;46
68628;BME280;55611;48.602;9.490;2023-08-21T14:34:20;97330;;;34.7;46
68628;BME280;55611;48.602;9.490;2023-08-21T14:36:50;97330;;;34.7;46
68628;BME280;55611;48.602;9.490;2023-08-21T14:39:21;97330;;;34.7;46